Time;durP1;ratioP1;P1;durP2;ratioP2;P2;SDS_P1;SDS_P2;PMS_P1;PMS_P2;Temp;Humidity;BMP_temperature;BMP_pressure;BME280_temperature;BME280_humidity;BME280_pressure;Samples;Min_cycle;Max_cycle;Signal;HPM_P1;HPM_P2
2021/03/25 00:01:40;;;;;;;45.70;40.72;;;23.00;47.90;;;;;;4916638;29;20024;-71
2021/03/25 00:04:06;;;;;;;42.30;37.95;;;23.00;47.90;;;;;;4916939;29;20028;-62
2021/03/25 00:06:38;;;;;;;42.25;37.65;;;23.00;47.80;;;;;;4916888;29;20486;-64
2021/03/25 00:09:12;;;;;;;43.58;33.97;;;23.00;47.80;;;;;;4916965;29;20028;-70
2021/03/25 00:11:38;;;;;;;36.40;32.53;;;23.00;47.80;;;;;;4916792;29;20029;-64
2021/03/25 00:14:07;;;;;;;32.92;29.45;;;23.00;47.70;;;;;;4916083;29;20399;-63
2021/03/25 00:16:44;;;;;;;31.65;28.27;;;23.00;47.70;;;;;;4899405;29;20338;-63
2021/03/25 00:19:18;;;;;;;28.30;25.40;;;23.00;47.70;;;;;;4899642;29;20055;-64
2021/03/25 00:22:04;;;;;;;31.02;27.83;;;23.00;47.70;;;;;;4916174;29;20028;-63
2021/03/25 00:24:34;;;;;;;30.42;26.80;;;23.00;47.60;;;;;;4908706;29;20043;-63
2021/03/25 00:27:04;;;;;;;27.00;23.02;;;23.00;47.60;;;;;;4919665;29;20036;-63
2021/03/25 00:29:40;;;;;;;26.38;22.52;;;23.00;47.60;;;;;;4886779;29;20028;-64
2021/03/25 11:03:35;;;;;;;7.60;3.33;;;23.70;49.00;;;;;;4945296;23;20503;-60
2021/03/25 11:06:01;;;;;;;8.60;3.92;;;23.80;48.70;;;;;;4953652;28;20046;-59
2021/03/25 11:08:33;;;;;;;7.32;3.92;;;23.90;48.60;;;;;;4942883;28;20036;-59
2021/03/25 11:11:02;;;;;;;7.47;4.57;;;24.00;48.60;;;;;;4943985;29;20059;-60
2021/03/25 11:13:29;;;;;;;6.78;4.15;;;24.10;48.50;;;;;;4928081;29;20857;-59
2021/03/25 11:15:58;;;;;;;5.45;3.88;;;24.10;48.30;;;;;;4953521;29;20035;-59
2021/03/25 11:18:49;;;;;;;11.95;4.93;;;24.20;48.20;;;;;;4935396;29;20047;-60
2021/03/25 11:21:24;;;;;;;6.43;4.45;;;24.30;48.20;;;;;;4953002;29;20406;-59
2021/03/25 11:23:59;;;;;;;7.95;4.95;;;24.40;48.10;;;;;;4952836;29;20035;-60
2021/03/25 11:26:25;;;;;;;6.53;4.32;;;24.50;48.00;;;;;;4953767;29;20438;-59
2021/03/25 11:28:51;;;;;;;6.93;4.40;;;24.60;47.90;;;;;;4953477;29;20042;-59
2021/03/25 11:31:23;;;;;;;8.45;4.40;;;24.70;47.70;;;;;;4952955;29;20047;-60
2021/03/25 11:33:51;;;;;;;7.40;4.07;;;24.70;47.60;;;;;;4952854;29;20058;-59
2021/03/25 11:36:37;;;;;;;6.75;4.25;;;24.80;47.60;;;;;;4953057;29;20031;-60
2021/03/25 11:39:37;;;;;;;5.38;4.40;;;24.90;47.70;;;;;;4952675;29;20039;-59
2021/03/25 11:42:03;;;;;;;9.50;4.10;;;25.00;47.60;;;;;;4948440;29;20519;-59
2021/03/25 11:44:49;;;;;;;8.73;4.50;;;25.10;47.40;;;;;;4935537;29;20049;-58
2021/03/25 11:47:22;;;;;;;5.10;4.60;;;25.10;48.00;;;;;;4952943;29;20035;-59
2021/03/25 11:49:49;;;;;;;10.85;5.15;;;25.30;47.20;;;;;;4952509;29;20520;-62
2021/03/25 11:52:15;;;;;;;8.73;5.00;;;25.30;47.20;;;;;;4953003;29;20174;-60
2021/03/25 11:54:43;;;;;;;7.03;4.78;;;25.40;47.20;;;;;;4952636;29;20035;-60
2021/03/25 11:57:34;;;;;;;8.40;4.57;;;25.50;47.10;;;;;;4953006;29;20035;-60
2021/03/25 12:00:09;;;;;;;5.82;4.40;;;25.50;47.10;;;;;;4920133;29;20036;-60
2021/03/25 12:02:40;;;;;;;6.65;4.95;;;25.60;46.80;;;;;;4965606;28;20053;-60
2021/03/25 12:05:39;;;;;;;5.93;4.10;;;25.70;46.70;;;;;;4971934;28;20118;-60
2021/03/25 12:08:15;;;;;;;6.30;5.05;;;25.80;46.80;;;;;;4964783;28;20058;-61
2021/03/25 12:10:42;;;;;;;8.70;4.70;;;25.90;46.40;;;;;;4971853;28;20468;-61
2021/03/25 12:13:09;;;;;;;66.07;59.25;;;26.00;46.40;;;;;;4971993;28;20039;-64
2021/03/25 12:15:36;;;;;;;48.97;44.20;;;26.10;46.50;;;;;;4971969;28;20043;-63
2021/03/25 12:18:06;;;;;;;28.85;25.13;;;26.10;46.50;;;;;;4954274;28;20034;-64
2021/03/25 12:20:34;;;;;;;;;;;26.10;46.30;;;;;;4972230;28;20480;-64
2021/03/25 12:23:20;;;;;;;14.73;13.25;;;26.10;46.60;;;;;;4975828;28;19906;-63
2021/03/25 12:25:48;;;;;;;10.63;7.50;;;26.20;46.20;;;;;;4975292;28;20035;-63
2021/03/25 12:28:16;;;;;;;11.30;7.10;;;26.20;46.10;;;;;;4975591;28;20062;-63
2021/03/25 12:30:42;;;;;;;7.50;6.25;;;26.20;46.20;;;;;;4941775;28;20092;-63
2021/03/25 12:33:35;;;;;;;7.90;5.18;;;26.20;46.30;;;;;;4975586;28;20138;-63
2021/03/25 12:36:05;;;;;;;5.88;4.95;;;26.20;46.30;;;;;;4957837;28;20070;-63
2021/03/25 12:38:31;;;;;;;10.47;5.50;;;26.20;46.30;;;;;;4975657;28;20038;-64
2021/03/25 12:40:58;;;;;;;7.93;5.93;;;26.20;46.30;;;;;;4958476;28;20276;-63
2021/03/25 12:43:27;;;;;;;7.97;5.63;;;26.20;46.30;;;;;;4958247;28;20038;-64
2021/03/25 12:46:05;;;;;;;6.55;5.50;;;26.10;46.30;;;;;;4975177;28;20042;-64
2021/03/25 12:48:32;;;;;;;11.48;5.60;;;26.10;46.40;;;;;;4975293;28;20108;-63
2021/03/25 12:51:00;;;;;;;7.57;5.18;;;26.10;46.40;;;;;;4975148;28;20101;-64
2021/03/25 12:53:29;;;;;;;8.90;5.47;;;26.10;46.50;;;;;;4976320;28;20555;-65
2021/03/25 12:55:56;;;;;;;8.48;5.63;;;26.10;46.60;;;;;;4975505;28;20038;-64
2021/03/25 12:58:34;;;;;;;5.68;5.05;;;26.10;46.50;;;;;;4957534;28;20077;-64
2021/03/25 13:01:06;;;;;;;10.60;6.35;;;26.10;46.60;;;;;;4974840;28;20043;-63
2021/03/25 13:03:33;;;;;;;11.10;5.60;;;26.10;46.60;;;;;;4974986;28;20050;-64
2021/03/25 13:05:59;;;;;;;11.25;5.20;;;26.10;46.70;;;;;;4957027;28;20122;-64
2021/03/25 13:08:25;;;;;;;9.38;5.45;;;26.00;46.60;;;;;;4974897;28;20150;-64
2021/03/25 13:10:51;;;;;;;12.02;4.80;;;26.00;46.60;;;;;;4974745;28;20043;-65
2021/03/25 13:13:17;;;;;;;18.75;5.28;;;26.00;46.70;;;;;;4975139;28;20114;-65
2021/03/25 13:15:44;;;;;;;7.38;5.00;;;26.00;46.80;;;;;;4957355;28;20444;-65
2021/03/25 13:18:10;;;;;;;17.33;4.97;;;26.00;46.90;;;;;;4974967;28;20461;-64
2021/03/25 13:20:36;;;;;;;16.27;5.22;;;26.00;47.00;;;;;;4974531;28;20085;-65
2021/03/25 13:23:03;;;;;;;16.05;5.10;;;26.00;47.00;;;;;;4974990;28;20043;-65
2021/03/25 13:25:34;;;;;;;9.45;4.28;;;26.00;47.10;;;;;;4974507;28;20097;-64
2021/03/25 13:28:00;;;;;;;16.58;5.28;;;26.00;47.00;;;;;;4957523;28;20484;-62
2021/03/25 13:30:27;;;;;;;12.25;5.07;;;26.00;47.00;;;;;;4974386;28;20505;-64
2021/03/25 13:32:54;;;;;;;12.25;4.60;;;26.00;47.10;;;;;;4973656;28;20042;-64
2021/03/25 13:35:22;;;;;;;19.05;4.80;;;26.00;47.20;;;;;;4974359;28;20500;-64
2021/03/25 13:37:48;;;;;;;15.93;5.03;;;26.00;47.20;;;;;;4957353;28;20046;-63
2021/03/25 13:40:16;;;;;;;12.18;4.85;;;26.00;47.20;;;;;;4957101;28;20495;-63
2021/03/25 13:42:43;;;;;;;11.90;4.90;;;26.00;47.30;;;;;;4957262;28;20096;-63
2021/03/25 13:45:11;;;;;;;11.10;4.72;;;26.00;47.30;;;;;;4974333;28;20121;-63
2021/03/25 13:47:37;;;;;;;12.75;5.20;;;26.00;47.30;;;;;;4974366;28;20500;-63
2021/03/25 13:50:06;;;;;;;10.43;4.00;;;26.00;47.40;;;;;;4974257;28;20043;-64
2021/03/25 13:52:33;;;;;;;5.63;4.55;;;26.00;47.40;;;;;;4974282;28;20108;-66
2021/03/25 13:54:59;;;;;;;8.27;4.15;;;26.00;47.40;;;;;;4974233;28;20043;-64
2021/03/25 13:57:25;;;;;;;8.27;4.18;;;26.00;47.40;;;;;;4956911;28;20143;-65
2021/03/25 13:59:51;;;;;;;10.63;4.50;;;26.00;47.40;;;;;;4974405;28;20043;-64
2021/03/25 14:02:17;;;;;;;9.02;4.40;;;26.00;47.40;;;;;;4973884;28;20134;-64
2021/03/25 14:04:46;;;;;;;7.05;4.35;;;26.00;47.50;;;;;;4974333;28;20035;-65
2021/03/25 14:07:13;;;;;;;6.43;3.83;;;26.00;47.50;;;;;;4973767;28;20038;-64
2021/03/25 14:09:39;;;;;;;11.65;4.43;;;26.00;47.40;;;;;;4974009;28;20038;-64
2021/03/25 14:12:06;;;;;;;11.48;3.97;;;26.00;47.40;;;;;;4973769;28;20117;-64
2021/03/25 14:14:33;;;;;;;9.75;4.25;;;26.00;47.50;;;;;;4956925;28;20158;-64
2021/03/25 14:16:59;;;;;;;9.00;4.38;;;26.00;47.50;;;;;;4973667;28;20119;-64
2021/03/25 14:19:25;;;;;;;9.40;4.30;;;26.00;47.60;;;;;;4973952;28;20195;-64
2021/03/25 14:21:51;;;;;;;6.55;4.13;;;26.00;47.60;;;;;;4972404;28;20043;-65
2021/03/25 14:24:17;;;;;;;5.78;3.80;;;26.00;48.20;;;;;;4956277;28;20126;-65
2021/03/25 14:26:43;;;;;;;6.35;3.78;;;26.00;47.70;;;;;;4973593;28;20035;-65
2021/03/25 14:29:09;;;;;;;5.15;4.25;;;26.00;47.70;;;;;;4956611;28;20078;-66
2021/03/25 14:31:35;;;;;;;6.00;3.92;;;26.00;47.70;;;;;;4973499;28;20042;-65
2021/03/25 14:34:01;;;;;;;9.00;4.18;;;26.00;47.70;;;;;;4973939;28;20473;-66
2021/03/25 14:36:27;;;;;;;9.13;4.22;;;26.00;47.70;;;;;;4973993;28;20046;-65
2021/03/25 14:38:54;;;;;;;7.15;3.72;;;26.00;47.70;;;;;;4956217;28;20043;-66
2021/03/25 14:41:20;;;;;;;5.43;3.80;;;26.10;47.90;;;;;;4955878;28;20043;-63
2021/03/25 14:43:46;;;;;;;6.20;4.07;;;26.10;48.10;;;;;;4955816;28;20035;-64
2021/03/25 14:46:12;;;;;;;6.20;3.33;;;26.10;48.50;;;;;;4955520;28;20118;-65
2021/03/25 14:48:39;;;;;;;5.28;4.00;;;26.10;48.60;;;;;;4973329;28;20416;-64
2021/03/25 14:51:08;;;;;;;7.40;4.25;;;26.10;48.60;;;;;;4972858;28;20031;-64
2021/03/25 14:53:37;;;;;;;5.55;3.60;;;26.00;48.60;;;;;;4973282;28;20030;-63
2021/03/25 14:56:04;;;;;;;6.13;4.07;;;26.00;48.40;;;;;;4955867;28;20398;-64
2021/03/25 14:58:30;;;;;;;6.07;3.97;;;26.00;48.40;;;;;;4955955;28;20045;-66
2021/03/25 15:00:57;;;;;;;8.38;4.00;;;26.00;48.30;;;;;;4972948;28;20047;-65
2021/03/25 15:03:28;;;;;;;6.35;3.90;;;26.00;48.40;;;;;;4973043;28;20047;-65
2021/03/25 15:05:55;;;;;;;3.72;3.28;;;26.00;48.50;;;;;;4972995;28;20058;-64
2021/03/25 15:08:24;;;;;;;4.18;3.50;;;26.00;48.40;;;;;;4973200;28;20419;-65
2021/03/25 15:10:52;;;;;;;7.03;4.00;;;26.00;48.40;;;;;;4955629;28;20043;-65
2021/03/25 15:13:19;;;;;;;3.72;3.30;;;26.00;48.50;;;;;;4948295;28;20118;-64
2021/03/25 15:15:45;;;;;;;8.85;3.38;;;25.90;48.40;;;;;;4970304;28;20054;-64
2021/03/25 15:18:11;;;;;;;3.67;3.33;;;25.90;48.40;;;;;;4963151;28;20055;-63
2021/03/25 15:20:39;;;;;;;3.65;3.17;;;25.80;48.40;;;;;;4959029;28;20046;-63
2021/03/25 15:23:09;;;;;;;4.72;3.22;;;25.80;48.40;;;;;;4964811;28;20066;-64
2021/03/25 15:25:37;;;;;;;;;;;25.80;48.50;;;;;;4959203;28;20066;-63
2021/03/25 15:28:04;;;;;;;5.15;3.22;;;25.70;48.40;;;;;;4949733;28;19942;-64
2021/03/25 15:30:33;;;;;;;5.10;3.17;;;25.80;48.40;;;;;;4951899;28;20043;-62
2021/03/25 15:33:00;;;;;;;3.15;2.85;;;25.70;48.50;;;;;;4965026;28;20035;-63
2021/03/25 15:35:31;;;;;;;3.67;3.38;;;25.60;48.50;;;;;;4962156;28;20043;-63
2021/03/25 15:37:57;;;;;;;6.90;3.78;;;25.60;48.70;;;;;;4925616;29;20071;-64
2021/03/25 15:40:24;;;;;;;4.43;3.90;;;25.50;48.70;;;;;;4955350;28;20031;-63
2021/03/25 15:42:51;;;;;;;3.63;2.85;;;25.40;48.70;;;;;;4942593;29;20035;-63
2021/03/25 15:45:20;;;;;;;4.18;3.35;;;25.40;48.80;;;;;;4954370;29;20106;-62
2021/03/25 15:47:47;;;;;;;5.55;3.83;;;25.30;48.80;;;;;;4971788;28;20046;-62
2021/03/25 15:50:15;;;;;;;5.22;3.40;;;25.30;49.00;;;;;;4941088;29;20153;-58
2021/03/25 15:52:41;;;;;;;21.85;5.25;;;25.30;49.30;;;;;;4957109;28;20031;-52
2021/03/25 15:55:09;;;;;;;4.13;2.65;;;25.20;49.20;;;;;;4973479;28;20039;-52
2021/03/25 15:57:35;;;;;;;5.45;2.50;;;25.10;49.30;;;;;;4966433;28;20037;-53
2021/03/25 16:00:02;;;;;;;4.55;2.30;;;25.10;49.40;;;;;;4970737;28;20046;-52
2021/03/25 16:02:28;;;;;;;5.82;2.88;;;25.10;49.40;;;;;;4966933;28;20055;-53
2021/03/25 16:04:54;;;;;;;6.43;3.28;;;25.00;49.40;;;;;;4973756;28;20046;-52
2021/03/25 16:07:20;;;;;;;6.38;2.92;;;25.00;49.50;;;;;;4972068;28;20035;-52
2021/03/25 16:09:46;;;;;;;12.07;3.15;;;25.00;49.60;;;;;;4973316;28;20038;-52
2021/03/25 16:12:12;;;;;;;10.15;4.32;;;25.00;49.70;;;;;;4969410;28;20046;-51
2021/03/25 16:14:38;;;;;;;7.95;3.47;;;24.90;49.80;;;;;;4953058;29;20047;-52
2021/03/25 16:17:10;;;;;;;5.38;3.30;;;24.90;49.80;;;;;;4936174;29;20048;-52
2021/03/25 16:19:37;;;;;;;13.48;3.65;;;24.90;49.90;;;;;;4936385;29;20047;-50
2021/03/25 16:22:05;;;;;;;7.80;3.20;;;24.90;50.00;;;;;;4935930;29;20035;-51
2021/03/25 16:24:34;;;;;;;4.43;3.40;;;24.90;50.10;;;;;;4936235;29;20393;-51
2021/03/25 16:27:00;;;;;;;6.35;3.90;;;24.90;50.20;;;;;;4936354;29;20035;-51
2021/03/25 16:29:27;;;;;;;11.05;3.58;;;24.90;50.20;;;;;;4936168;29;20039;-50
2021/03/25 16:31:53;;;;;;;9.18;3.75;;;24.80;50.20;;;;;;4936070;29;20099;-50
2021/03/25 16:34:19;;;;;;;9.65;3.25;;;24.80;50.30;;;;;;4920169;29;20039;-50
2021/03/25 16:36:46;;;;;;;4.20;2.20;;;24.80;50.30;;;;;;4953688;29;20536;-50
2021/03/25 16:39:12;;;;;;;3.47;2.42;;;24.80;50.50;;;;;;4963290;28;20468;-50
2021/03/25 16:41:38;;;;;;;4.03;2.95;;;24.70;50.40;;;;;;4972429;28;20043;-50
2021/03/25 16:44:04;;;;;;;5.00;3.05;;;24.70;50.60;;;;;;4953234;28;20598;-50
2021/03/25 16:46:32;;;;;;;2.97;2.67;;;24.70;50.90;;;;;;4956237;28;20032;-50
2021/03/25 16:49:00;;;;;;;3.58;2.85;;;24.70;51.10;;;;;;4953892;29;20093;-51
2021/03/25 16:51:27;;;;;;;4.00;2.72;;;24.70;51.20;;;;;;4961198;28;20409;-51
2021/03/25 16:53:56;;;;;;;7.00;3.33;;;24.60;51.30;;;;;;4953687;29;20090;-51
2021/03/25 16:56:23;;;;;;;6.75;3.28;;;24.60;51.40;;;;;;4953784;28;20114;-50
2021/03/25 16:58:50;;;;;;;4.85;2.60;;;24.60;51.50;;;;;;4967979;28;20058;-50
2021/03/25 17:01:16;;;;;;;5.22;3.10;;;24.60;51.50;;;;;;4987598;28;20043;-51
2021/03/25 17:03:42;;;;;;;4.88;3.70;;;24.50;51.50;;;;;;4972654;28;20082;-51
2021/03/25 17:06:08;;;;;;;7.65;4.75;;;24.50;51.60;;;;;;4959968;28;20136;-51
2021/03/25 17:08:34;;;;;;;9.27;5.68;;;24.50;51.50;;;;;;4956337;28;20050;-50
2021/03/25 17:11:05;;;;;;;7.28;4.68;;;24.50;51.40;;;;;;4957309;28;20145;-51
2021/03/25 17:13:33;;;;;;;5.65;4.95;;;24.50;51.50;;;;;;4956861;29;20050;-50
2021/03/25 17:15:59;;;;;;;4.35;3.88;;;24.50;51.50;;;;;;4950313;28;20046;-51
2021/03/25 17:18:26;;;;;;;5.30;4.05;;;24.50;51.50;;;;;;4975884;28;20066;-51
2021/03/25 17:20:54;;;;;;;4.53;4.07;;;24.40;51.50;;;;;;4976125;28;20468;-51
2021/03/25 17:23:24;;;;;;;7.05;3.75;;;24.50;51.60;;;;;;4975786;28;20045;-51
2021/03/25 17:25:51;;;;;;;7.45;4.55;;;24.40;51.60;;;;;;4976176;28;20061;-50
2021/03/25 17:28:24;;;;;;;7.75;4.68;;;24.40;51.50;;;;;;4987349;28;20054;-51
2021/03/25 17:30:51;;;;;;;5.72;4.03;;;24.30;51.50;;;;;;4955466;29;20043;-51
2021/03/25 17:33:22;;;;;;;5.45;4.40;;;24.40;51.50;;;;;;4958747;28;20043;-50
2021/03/25 17:35:48;;;;;;;6.15;4.45;;;24.40;51.50;;;;;;4957672;28;20056;-51
2021/03/25 17:38:14;;;;;;;5.95;4.68;;;24.30;51.40;;;;;;4961523;28;20106;-53
2021/03/25 17:40:42;;;;;;;7.00;4.10;;;24.40;51.40;;;;;;4965200;28;20113;-50
2021/03/25 17:43:10;;;;;;;4.40;4.00;;;24.30;51.40;;;;;;4963805;28;20049;-51
2021/03/25 17:45:42;;;;;;;6.30;4.38;;;24.30;51.40;;;;;;4964194;28;20034;-51
2021/03/25 17:48:11;;;;;;;4.13;3.72;;;24.30;51.40;;;;;;4969062;28;20538;-51
2021/03/25 17:50:37;;;;;;;4.80;3.83;;;24.30;51.40;;;;;;4966695;28;20114;-51
2021/03/25 17:53:04;;;;;;;4.10;3.75;;;24.30;51.40;;;;;;4956357;29;20114;-51
2021/03/25 17:55:31;;;;;;;4.70;3.70;;;24.30;51.30;;;;;;4960207;28;20099;-51
2021/03/25 17:58:01;;;;;;;6.40;3.75;;;24.20;51.30;;;;;;4975964;28;20070;-51
2021/03/25 18:00:31;;;;;;;4.68;4.20;;;24.30;51.40;;;;;;4958143;28;20073;-51
2021/03/25 18:02:59;;;;;;;3.63;3.33;;;24.20;51.30;;;;;;4975199;28;20154;-51
2021/03/25 18:05:31;;;;;;;4.25;3.85;;;24.20;51.30;;;;;;4964450;28;20335;-51
2021/03/25 18:07:57;;;;;;;4.93;3.90;;;24.20;51.30;;;;;;4960012;28;20046;-51
2021/03/25 18:10:24;;;;;;;8.95;7.63;;;24.20;51.30;;;;;;4948961;28;20035;-58
2021/03/25 18:12:50;;;;;;;13.80;12.15;;;24.20;51.30;;;;;;4964541;28;20061;-57
2021/03/25 18:15:17;;;;;;;21.35;18.70;;;24.20;51.30;;;;;;4956514;28;20046;-51
2021/03/25 18:17:43;;;;;;;27.67;24.77;;;24.20;51.30;;;;;;4942913;29;20098;-51
2021/03/25 18:20:17;;;;;;;23.33;20.90;;;24.10;51.20;;;;;;4959847;28;20031;-51
2021/03/25 18:22:43;;;;;;;40.03;35.78;;;24.10;51.20;;;;;;4963250;28;20097;-51
2021/03/25 18:25:11;;;;;;;33.63;30.02;;;24.10;51.10;;;;;;4974830;28;20034;-51
2021/03/25 18:27:37;;;;;;;36.75;33.03;;;24.10;51.10;;;;;;4975247;28;20038;-50
2021/03/25 18:30:04;;;;;;;35.00;31.52;;;24.10;51.10;;;;;;4974885;28;20089;-51
2021/03/25 18:32:30;;;;;;;35.03;31.67;;;24.00;51.00;;;;;;4975050;28;20039;-51
2021/03/25 18:34:56;;;;;;;35.95;32.45;;;24.00;50.90;;;;;;4973712;28;20476;-51
2021/03/25 18:37:22;;;;;;;31.05;28.10;;;24.00;50.90;;;;;;4937796;28;20064;-51
2021/03/25 18:39:49;;;;;;;32.13;28.85;;;24.00;50.80;;;;;;4967794;28;20047;-51
2021/03/25 18:42:15;;;;;;;32.97;29.65;;;24.00;50.80;;;;;;4955270;28;20074;-51
2021/03/25 18:44:41;;;;;;;29.52;26.55;;;23.90;50.80;;;;;;4955146;29;20122;-51
2021/03/25 18:47:07;;;;;;;29.13;26.33;;;23.90;50.80;;;;;;4955533;29;20043;-51
2021/03/25 18:49:33;;;;;;;27.83;25.15;;;23.90;50.70;;;;;;4937742;29;20131;-51
2021/03/25 18:52:07;;;;;;;26.98;24.42;;;23.90;50.70;;;;;;4959085;28;20122;-51
2021/03/25 18:54:34;;;;;;;28.15;25.33;;;23.90;50.70;;;;;;4956192;28;20178;-51
2021/03/25 18:57:01;;;;;;;24.33;22.02;;;23.90;50.60;;;;;;4974589;28;20504;-50
2021/03/25 18:59:27;;;;;;;28.73;25.80;;;23.90;50.60;;;;;;4962882;28;20047;-51
2021/03/25 19:01:53;;;;;;;28.20;25.50;;;23.90;50.60;;;;;;4954845;29;20074;-51
2021/03/25 19:04:19;;;;;;;33.30;29.90;;;23.90;50.60;;;;;;4952135;29;20485;-52
2021/03/25 19:06:45;;;;;;;35.05;31.67;;;23.80;50.60;;;;;;4953423;29;20110;-50
2021/03/25 19:09:11;;;;;;;38.50;34.70;;;23.80;50.60;;;;;;4954767;29;20122;-50
2021/03/25 19:11:37;;;;;;;39.08;35.33;;;23.80;50.60;;;;;;4950132;29;20039;-52
2021/03/25 19:14:04;;;;;;;37.38;33.63;;;23.80;50.60;;;;;;4942604;29;20035;-51
2021/03/25 19:16:30;;;;;;;36.35;32.80;;;23.80;50.60;;;;;;4937088;29;20051;-50
2021/03/25 19:18:57;;;;;;;36.83;33.08;;;23.80;50.60;;;;;;4952915;29;20047;-50
2021/03/25 19:21:24;;;;;;;33.65;30.15;;;23.80;50.50;;;;;;4941446;28;20035;-51
2021/03/25 19:23:51;;;;;;;31.90;28.60;;;23.70;50.50;;;;;;4932473;29;20050;-49
2021/03/25 19:26:18;;;;;;;29.60;26.70;;;23.70;50.40;;;;;;4950226;29;20484;-50
2021/03/25 19:28:45;;;;;;;31.85;28.55;;;23.70;50.40;;;;;;4953055;28;20044;-51
2021/03/25 19:31:14;;;;;;;30.92;27.83;;;23.70;50.40;;;;;;4934973;29;20167;-50
2021/03/25 19:33:41;;;;;;;29.35;26.40;;;23.70;50.40;;;;;;4951046;28;20042;-50
2021/03/25 19:36:09;;;;;;;28.05;25.17;;;23.70;50.40;;;;;;4938023;29;20363;-51
2021/03/25 19:38:35;;;;;;;27.70;24.90;;;23.70;50.40;;;;;;4934043;29;20045;-51
2021/03/25 19:41:06;;;;;;;28.75;25.95;;;23.70;50.40;;;;;;4948556;29;20478;-51
2021/03/25 19:43:37;;;;;;;27.88;25.08;;;23.70;50.40;;;;;;4949323;28;20027;-50
2021/03/25 19:46:03;;;;;;;;;;;23.70;50.40;;;;;;4955021;29;20453;-51
2021/03/25 19:48:35;;;;;;;25.40;22.95;;;23.70;50.50;;;;;;4949059;29;19922;-50
2021/03/25 19:51:04;;;;;;;22.17;19.88;;;23.70;50.30;;;;;;4935251;29;20047;-51
2021/03/25 19:53:31;;;;;;;23.25;20.85;;;23.70;50.30;;;;;;4942280;28;20101;-51
2021/03/25 19:55:57;;;;;;;23.73;21.33;;;23.70;50.40;;;;;;4954413;29;20046;-50
2021/03/25 19:58:24;;;;;;;22.80;20.33;;;23.70;50.40;;;;;;4953940;29;20040;-50
2021/03/25 20:00:50;;;;;;;18.83;16.92;;;23.70;50.50;;;;;;4954073;28;20060;-50
2021/03/25 20:03:18;;;;;;;24.15;18.35;;;23.70;50.50;;;;;;4971238;28;20039;-51
2021/03/25 20:05:51;;;;;;;20.48;18.48;;;23.60;50.50;;;;;;4973403;28;20031;-50
2021/03/25 20:08:20;;;;;;;19.35;17.45;;;23.60;50.50;;;;;;4973279;28;20047;-52
2021/03/25 20:10:47;;;;;;;17.48;15.77;;;23.60;50.50;;;;;;4955671;28;20168;-50
2021/03/25 20:13:14;;;;;;;17.65;15.95;;;23.60;50.50;;;;;;4973483;28;20042;-51
2021/03/25 20:15:45;;;;;;;15.95;14.35;;;23.60;50.40;;;;;;4938870;28;20465;-50
2021/03/25 20:18:15;;;;;;;17.70;14.98;;;23.60;50.40;;;;;;4973094;28;20039;-51
2021/03/25 20:20:41;;;;;;;16.02;14.40;;;23.50;50.40;;;;;;4972799;28;20051;-51
2021/03/25 20:23:10;;;;;;;15.27;13.73;;;23.60;50.40;;;;;;4971501;28;20110;-51
2021/03/25 20:25:36;;;;;;;18.90;16.95;;;23.60;50.40;;;;;;4969505;28;20027;-51
2021/03/25 20:28:04;;;;;;;28.50;25.60;;;23.60;50.40;;;;;;4968464;28;20049;-52
2021/03/25 20:30:34;;;;;;;26.63;23.95;;;23.50;50.30;;;;;;4972923;28;20043;-52
2021/03/25 20:33:00;;;;;;;23.55;21.05;;;23.50;50.30;;;;;;4948784;29;20039;-52
2021/03/25 20:35:27;;;;;;;25.77;22.90;;;23.50;50.30;;;;;;4936183;29;20509;-57
2021/03/25 20:37:53;;;;;;;25.17;22.67;;;23.50;50.30;;;;;;4957846;28;20464;-58
2021/03/25 20:40:29;;;;;;;22.08;19.00;;;23.50;50.30;;;;;;4936481;29;20121;-57
2021/03/25 20:42:56;;;;;;;18.13;16.17;;;23.50;50.30;;;;;;4927405;28;20849;-57
2021/03/25 20:45:27;;;;;;;17.88;14.82;;;23.50;50.30;;;;;;4976709;28;20034;-55
2021/03/25 20:47:53;;;;;;;14.60;13.13;;;23.50;50.30;;;;;;4962324;28;20078;-57
2021/03/25 20:50:20;;;;;;;16.08;14.18;;;23.50;50.20;;;;;;4940042;29;20038;-56
2021/03/25 20:52:47;;;;;;;16.88;15.27;;;23.50;50.20;;;;;;4975895;28;20434;-55
2021/03/25 20:55:15;;;;;;;19.08;16.75;;;23.50;50.20;;;;;;4978042;28;20043;-56
2021/03/25 20:57:42;;;;;;;22.20;17.13;;;23.40;50.10;;;;;;4994913;28;20379;-56
2021/03/25 21:00:10;;;;;;;17.40;15.57;;;23.40;50.10;;;;;;4987488;28;20047;-56
2021/03/25 21:02:36;;;;;;;18.15;15.05;;;23.40;50.10;;;;;;4969867;28;20142;-52
2021/03/25 21:05:04;;;;;;;17.48;14.02;;;23.40;50.10;;;;;;4977416;28;20098;-51
2021/03/25 21:07:30;;;;;;;13.35;10.90;;;23.40;50.00;;;;;;4988849;28;20151;-51
2021/03/25 21:09:56;;;;;;;13.52;11.25;;;23.40;49.90;;;;;;4976482;28;20377;-53
2021/03/25 21:12:22;;;;;;;11.55;10.10;;;23.40;49.90;;;;;;4957172;28;20057;-51
2021/03/25 21:14:48;;;;;;;11.82;10.02;;;23.40;49.60;;;;;;4958055;28;20050;-51
2021/03/25 21:17:15;;;;;;;10.27;9.18;;;23.40;49.70;;;;;;4968484;28;20098;-51
2021/03/25 21:19:41;;;;;;;11.68;9.80;;;23.40;49.40;;;;;;4956616;28;20039;-53
2021/03/25 21:22:07;;;;;;;13.73;8.93;;;23.40;49.40;;;;;;4939504;29;20036;-50
2021/03/25 21:24:33;;;;;;;10.95;8.48;;;23.30;49.30;;;;;;4956655;28;20046;-52
2021/03/25 21:26:59;;;;;;;9.80;7.78;;;23.30;49.20;;;;;;4943508;28;20121;-51
2021/03/25 21:29:26;;;;;;;11.88;7.93;;;23.30;48.90;;;;;;4967550;28;20043;-50
2021/03/25 21:31:52;;;;;;;10.35;7.28;;;23.40;48.90;;;;;;4970016;28;20050;-50
2021/03/25 21:34:18;;;;;;;10.50;7.40;;;23.30;48.70;;;;;;4974013;28;20050;-50
2021/03/25 21:36:44;;;;;;;8.68;6.70;;;23.30;48.60;;;;;;4986099;28;20748;-51
2021/03/25 21:39:10;;;;;;;7.65;6.30;;;23.30;48.40;;;;;;4969049;28;20461;-51
2021/03/25 21:41:36;;;;;;;11.98;6.47;;;23.30;48.20;;;;;;4962179;28;20090;-51
2021/03/25 21:44:02;;;;;;;8.15;6.57;;;23.30;48.20;;;;;;4970632;28;20034;-51
2021/03/25 21:46:28;;;;;;;9.63;7.70;;;23.30;48.10;;;;;;4961147;28;20043;-51
2021/03/25 21:48:54;;;;;;;14.80;11.85;;;23.30;48.00;;;;;;4958837;28;20062;-51
2021/03/25 21:51:21;;;;;;;42.15;37.38;;;23.30;47.80;;;;;;4945830;29;20043;-51
2021/03/25 21:53:51;;;;;;;52.97;47.13;;;23.30;47.70;;;;;;4949575;28;20142;-51
2021/03/25 21:56:21;;;;;;;58.07;49.77;;;23.20;47.50;;;;;;4970268;28;20074;-51
2021/03/25 21:58:47;;;;;;;66.63;59.25;;;23.30;47.40;;;;;;4962674;28;20041;-51
2021/03/25 22:01:15;;;;;;;64.50;57.63;;;23.30;47.30;;;;;;4949759;28;20042;-51
2021/03/25 22:03:42;;;;;;;53.00;47.22;;;23.20;47.20;;;;;;4964626;28;20113;-51
2021/03/25 22:06:08;;;;;;;58.20;51.83;;;23.20;46.90;;;;;;4964270;28;20036;-51
2021/03/25 22:08:34;;;;;;;53.67;47.85;;;23.20;46.80;;;;;;4968006;28;20102;-52
2021/03/25 22:11:01;;;;;;;50.97;45.53;;;23.20;47.30;;;;;;4960005;28;20576;-52
2021/03/25 22:13:34;;;;;;;43.30;38.58;;;23.20;46.60;;;;;;4968009;28;20039;-52
2021/03/25 22:16:01;;;;;;;41.08;36.60;;;23.20;46.40;;;;;;4958534;28;20039;-52
2021/03/25 22:18:27;;;;;;;39.33;35.00;;;23.20;46.30;;;;;;4958996;28;20426;-52
2021/03/25 22:20:54;;;;;;;31.45;28.15;;;23.20;46.20;;;;;;4957224;28;20035;-52
2021/03/25 22:23:20;;;;;;;33.53;29.98;;;23.20;45.90;;;;;;4971731;28;20067;-52
2021/03/25 22:25:47;;;;;;;33.45;28.63;;;23.20;45.80;;;;;;4957917;28;20042;-51
2021/03/25 22:28:14;;;;;;;30.75;25.60;;;23.20;45.80;;;;;;4961554;28;20485;-51
2021/03/25 22:30:40;;;;;;;27.40;22.38;;;23.10;45.70;;;;;;4956639;28;20053;-51
2021/03/25 22:33:11;;;;;;;26.58;22.63;;;23.10;45.50;;;;;;4959745;28;20090;-52
2021/03/25 22:35:37;;;;;;;27.63;22.13;;;23.10;45.50;;;;;;4972669;28;20074;-51
2021/03/25 22:38:04;;;;;;;23.90;19.63;;;23.10;45.40;;;;;;4948563;28;20042;-51
2021/03/25 22:40:36;;;;;;;21.75;19.45;;;23.10;45.10;;;;;;4964912;28;20039;-51
2021/03/25 22:43:06;;;;;;;18.92;15.77;;;23.10;44.90;;;;;;4954673;29;20063;-51
2021/03/25 22:45:38;;;;;;;18.35;14.27;;;23.10;44.60;;;;;;4943305;28;20066;-51
2021/03/25 22:48:06;;;;;;;16.95;13.88;;;23.10;44.10;;;;;;4963239;28;20485;-52
2021/03/25 22:50:33;;;;;;;16.83;13.38;;;23.10;44.20;;;;;;4973785;28;20560;-51
2021/03/25 22:52:59;;;;;;;15.50;12.77;;;23.00;44.00;;;;;;4966171;28;20083;-52
2021/03/25 22:55:26;;;;;;;14.77;13.07;;;23.10;43.90;;;;;;4973438;28;20085;-50
2021/03/25 22:57:52;;;;;;;15.20;11.80;;;23.00;43.90;;;;;;4956247;28;20043;-51
2021/03/25 23:00:34;;;;;;;13.93;11.07;;;23.00;43.70;;;;;;4974341;28;20044;-57
2021/03/25 23:03:02;;;;;;;11.98;10.73;;;23.00;43.20;;;;;;4971160;28;20077;-56
2021/03/25 23:05:28;;;;;;;15.73;10.48;;;23.00;43.40;;;;;;4961121;28;20063;-58
2021/03/25 23:07:55;;;;;;;13.30;10.35;;;23.00;43.40;;;;;;4972310;28;20070;-57
2021/03/25 23:10:33;;;;;;;12.35;8.98;;;22.90;43.30;;;;;;4972433;28;20078;-56
2021/03/25 23:12:59;;;;;;;12.18;8.30;;;22.90;42.60;;;;;;4969598;28;20059;-57
2021/03/25 23:15:27;;;;;;;10.35;8.63;;;22.90;43.00;;;;;;4972828;28;20142;-55